sensor_id;sensor_type;location;lat;lon;timestamp;temperature;humidity
17033;DHT22;63208;52.178;21.016;2023-05-10T00:00:42;10.10;98.10
17033;DHT22;63208;52.178;21.016;2023-05-10T00:03:10;10.10;98.40
17033;DHT22;63208;52.178;21.016;2023-05-10T00:05:37;10.10;98.50
17033;DHT22;63208;52.178;21.016;2023-05-10T00:08:03;10.10;98.70
17033;DHT22;63208;52.178;21.016;2023-05-10T00:10:30;10.10;98.50
17033;DHT22;63208;52.178;21.016;2023-05-10T00:12:57;10.00;98.70
17033;DHT22;63208;52.178;21.016;2023-05-10T00:15:23;10.00;99.00
17033;DHT22;63208;52.178;21.016;2023-05-10T00:17:50;9.90;98.90
17033;DHT22;63208;52.178;21.016;2023-05-10T00:20:18;9.90;99.20
17033;DHT22;63208;52.178;21.016;2023-05-10T00:22:45;9.90;98.90
17033;DHT22;63208;52.178;21.016;2023-05-10T00:25:12;9.90;99.20
17033;DHT22;63208;52.178;21.016;2023-05-10T00:27:39;9.80;99.30
17033;DHT22;63208;52.178;21.016;2023-05-10T00:30:06;9.90;99.30
17033;DHT22;63208;52.178;21.016;2023-05-10T00:32:33;9.80;99.00
17033;DHT22;63208;52.178;21.016;2023-05-10T00:34:59;9.90;98.70
17033;DHT22;63208;52.178;21.016;2023-05-10T00:37:28;9.90;99.10
17033;DHT22;63208;52.178;21.016;2023-05-10T00:39:55;9.80;99.10
17033;DHT22;63208;52.178;21.016;2023-05-10T00:42:21;9.80;99.50
17033;DHT22;63208;52.178;21.016;2023-05-10T00:44:48;9.80;99.50
17033;DHT22;63208;52.178;21.016;2023-05-10T00:47:15;9.80;99.40
17033;DHT22;63208;52.178;21.016;2023-05-10T00:49:42;9.70;99.20
17033;DHT22;63208;52.178;21.016;2023-05-10T00:52:09;9.60;99.50
17033;DHT22;63208;52.178;21.016;2023-05-10T00:54:37;9.60;99.60
17033;DHT22;63208;52.178;21.016;2023-05-10T00:57:04;9.60;99.50
17033;DHT22;63208;52.178;21.016;2023-05-10T00:59:31;9.70;99.70
17033;DHT22;63208;52.178;21.016;2023-05-10T01:01:58;9.60;99.60
17033;DHT22;63208;52.178;21.016;2023-05-10T01:04:24;9.60;99.40
17033;DHT22;63208;52.178;21.016;2023-05-10T01:06:51;9.50;99.40
17033;DHT22;63208;52.178;21.016;2023-05-10T01:09:19;9.50;99.70
17033;DHT22;63208;52.178;21.016;2023-05-10T01:11:47;9.60;99.90
17033;DHT22;63208;52.178;21.016;2023-05-10T01:14:14;9.50;99.70
17033;DHT22;63208;52.178;21.016;2023-05-10T01:16:41;9.40;99.60
17033;DHT22;63208;52.178;21.016;2023-05-10T01:19:11;9.40;99.90
17033;DHT22;63208;52.178;21.016;2023-05-10T01:21:43;9.40;99.90
17033;DHT22;63208;52.178;21.016;2023-05-10T01:27:02;9.40;99.90
17033;DHT22;63208;52.178;21.016;2023-05-10T01:29:45;9.40;99.50
17033;DHT22;63208;52.178;21.016;2023-05-10T01:32:17;9.30;99.90
17033;DHT22;63208;52.178;21.016;2023-05-10T01:34:47;9.30;99.90
17033;DHT22;63208;52.178;21.016;2023-05-10T01:37:18;9.30;99.90
17033;DHT22;63208;52.178;21.016;2023-05-10T01:39:47;9.20;99.90
17033;DHT22;63208;52.178;21.016;2023-05-10T01:42:17;9.20;99.90
17033;DHT22;63208;52.178;21.016;2023-05-10T01:44:49;9.20;99.90
17033;DHT22;63208;52.178;21.016;2023-05-10T01:47:22;9.20;99.90
17033;DHT22;63208;52.178;21.016;2023-05-10T01:49:51;9.20;99.90
17033;DHT22;63208;52.178;21.016;2023-05-10T01:52:19;9.20;99.90
17033;DHT22;63208;52.178;21.016;2023-05-10T01:54:49;9.10;99.90
17033;DHT22;63208;52.178;21.016;2023-05-10T01:57:16;9.10;99.90
17033;DHT22;63208;52.178;21.016;2023-05-10T01:59:43;9.10;99.90
17033;DHT22;63208;52.178;21.016;2023-05-10T02:02:12;9.10;99.90
17033;DHT22;63208;52.178;21.016;2023-05-10T02:04:41;9.10;99.90
17033;DHT22;63208;52.178;21.016;2023-05-10T02:07:08;9.10;99.90
17033;DHT22;63208;52.178;21.016;2023-05-10T02:09:36;9.10;99.90
17033;DHT22;63208;52.178;21.016;2023-05-10T02:12:03;9.10;99.90
17033;DHT22;63208;52.178;21.016;2023-05-10T02:14:32;9.00;99.90
17033;DHT22;63208;52.178;21.016;2023-05-10T02:16:59;9.00;99.90
17033;DHT22;63208;52.178;21.016;2023-05-10T02:19:26;8.90;99.90
17033;DHT22;63208;52.178;21.016;2023-05-10T02:21:55;9.00;99.90
17033;DHT22;63208;52.178;21.016;2023-05-10T02:24:23;8.90;99.90
17033;DHT22;63208;52.178;21.016;2023-05-10T02:26:50;8.80;99.90
17033;DHT22;63208;52.178;21.016;2023-05-10T02:29:17;8.70;99.90
17033;DHT22;63208;52.178;21.016;2023-05-10T02:31:45;8.60;99.90
17033;DHT22;63208;52.178;21.016;2023-05-10T02:34:12;8.50;99.90
17033;DHT22;63208;52.178;21.016;2023-05-10T02:36:39;8.40;99.90
17033;DHT22;63208;52.178;21.016;2023-05-10T02:39:08;8.50;99.90
17033;DHT22;63208;52.178;21.016;2023-05-10T02:41:38;8.40;99.90
17033;DHT22;63208;52.178;21.016;2023-05-10T02:44:06;8.50;99.90
17033;DHT22;63208;52.178;21.016;2023-05-10T02:46:34;8.50;99.90
17033;DHT22;63208;52.178;21.016;2023-05-10T02:49:02;8.50;99.90
17033;DHT22;63208;52.178;21.016;2023-05-10T02:51:30;8.50;99.90
17033;DHT22;63208;52.178;21.016;2023-05-10T02:54:00;8.50;99.90
17033;DHT22;63208;52.178;21.016;2023-05-10T02:56:31;8.50;99.90
17033;DHT22;63208;52.178;21.016;2023-05-10T02:58:59;8.50;99.90
17033;DHT22;63208;52.178;21.016;2023-05-10T03:01:26;8.50;99.90
17033;DHT22;63208;52.178;21.016;2023-05-10T03:03:52;8.60;99.90
17033;DHT22;63208;52.178;21.016;2023-05-10T03:06:19;8.50;99.90
17033;DHT22;63208;52.178;21.016;2023-05-10T03:08:46;8.40;99.90
17033;DHT22;63208;52.178;21.016;2023-05-10T03:14:00;8.30;99.90
17033;DHT22;63208;52.178;21.016;2023-05-10T03:16:32;8.40;99.90
17033;DHT22;63208;52.178;21.016;2023-05-10T03:19:04;8.30;99.90
17033;DHT22;63208;52.178;21.016;2023-05-10T03:21:33;8.30;99.90
17033;DHT22;63208;52.178;21.016;2023-05-10T03:24:03;8.40;99.90
17033;DHT22;63208;52.178;21.016;2023-05-10T03:26:32;8.30;99.90
17033;DHT22;63208;52.178;21.016;2023-05-10T03:29:00;8.40;99.90
17033;DHT22;63208;52.178;21.016;2023-05-10T03:31:27;8.40;99.90
17033;DHT22;63208;52.178;21.016;2023-05-10T03:33:54;8.30;99.90
17033;DHT22;63208;52.178;21.016;2023-05-10T03:36:21;8.40;99.90
17033;DHT22;63208;52.178;21.016;2023-05-10T03:38:47;8.40;99.90
17033;DHT22;63208;52.178;21.016;2023-05-10T03:41:14;8.40;99.90
17033;DHT22;63208;52.178;21.016;2023-05-10T03:43:41;8.40;99.90
17033;DHT22;63208;52.178;21.016;2023-05-10T03:46:09;8.40;99.90
17033;DHT22;63208;52.178;21.016;2023-05-10T03:48:36;8.50;99.90
17033;DHT22;63208;52.178;21.016;2023-05-10T03:51:03;8.50;99.90
17033;DHT22;63208;52.178;21.016;2023-05-10T03:53:29;8.60;99.90
17033;DHT22;63208;52.178;21.016;2023-05-10T03:55:56;8.60;99.90
17033;DHT22;63208;52.178;21.016;2023-05-10T03:58:23;8.60;99.90
17033;DHT22;63208;52.178;21.016;2023-05-10T04:00:50;8.60;99.90
17033;DHT22;63208;52.178;21.016;2023-05-10T04:03:18;8.50;99.90
17033;DHT22;63208;52.178;21.016;2023-05-10T04:05:45;8.60;99.90
17033;DHT22;63208;52.178;21.016;2023-05-10T04:08:12;8.60;99.90
17033;DHT22;63208;52.178;21.016;2023-05-10T04:10:40;8.70;99.90
17033;DHT22;63208;52.178;21.016;2023-05-10T04:13:06;8.60;99.90
17033;DHT22;63208;52.178;21.016;2023-05-10T04:15:33;8.60;99.90
17033;DHT22;63208;52.178;21.016;2023-05-10T04:18:00;8.70;99.90
17033;DHT22;63208;52.178;21.016;2023-05-10T04:20:28;8.70;99.90
17033;DHT22;63208;52.178;21.016;2023-05-10T04:22:55;8.70;99.90
17033;DHT22;63208;52.178;21.016;2023-05-10T04:25:22;8.70;99.90
17033;DHT22;63208;52.178;21.016;2023-05-10T04:27:48;8.80;99.90
17033;DHT22;63208;52.178;21.016;2023-05-10T04:30:15;8.90;99.90
17033;DHT22;63208;52.178;21.016;2023-05-10T04:32:42;8.90;99.90
17033;DHT22;63208;52.178;21.016;2023-05-10T04:35:09;9.00;99.90
17033;DHT22;63208;52.178;21.016;2023-05-10T04:37:37;9.10;99.90
17033;DHT22;63208;52.178;21.016;2023-05-10T04:40:05;9.10;99.90
17033;DHT22;63208;52.178;21.016;2023-05-10T04:42:31;9.20;99.90
17033;DHT22;63208;52.178;21.016;2023-05-10T04:44:58;9.20;99.90
17033;DHT22;63208;52.178;21.016;2023-05-10T04:47:25;9.20;99.90
17033;DHT22;63208;52.178;21.016;2023-05-10T04:49:52;9.30;99.90
17033;DHT22;63208;52.178;21.016;2023-05-10T04:52:18;9.30;99.90
17033;DHT22;63208;52.178;21.016;2023-05-10T04:54:46;9.40;99.90
17033;DHT22;63208;52.178;21.016;2023-05-10T04:57:13;9.40;99.90
17033;DHT22;63208;52.178;21.016;2023-05-10T04:59:40;9.40;99.90
17033;DHT22;63208;52.178;21.016;2023-05-10T05:02:06;9.50;99.90
17033;DHT22;63208;52.178;21.016;2023-05-10T05:04:33;9.50;99.90
17033;DHT22;63208;52.178;21.016;2023-05-10T05:07:00;9.60;99.90
17033;DHT22;63208;52.178;21.016;2023-05-10T05:09:26;9.60;99.90
17033;DHT22;63208;52.178;21.016;2023-05-10T05:11:54;9.70;99.90
17033;DHT22;63208;52.178;21.016;2023-05-10T05:14:21;9.60;99.90
17033;DHT22;63208;52.178;21.016;2023-05-10T05:16:50;9.70;99.90
17033;DHT22;63208;52.178;21.016;2023-05-10T05:19:16;9.70;99.90
17033;DHT22;63208;52.178;21.016;2023-05-10T05:21:43;9.80;99.90
17033;DHT22;63208;52.178;21.016;2023-05-10T05:24:10;9.80;99.90
17033;DHT22;63208;52.178;21.016;2023-05-10T05:26:37;9.90;99.90
17033;DHT22;63208;52.178;21.016;2023-05-10T05:29:06;9.90;99.90
17033;DHT22;63208;52.178;21.016;2023-05-10T05:31:32;10.00;99.90
17033;DHT22;63208;52.178;21.016;2023-05-10T05:33:59;10.10;99.90
17033;DHT22;63208;52.178;21.016;2023-05-10T05:36:26;10.10;99.90
17033;DHT22;63208;52.178;21.016;2023-05-10T05:38:52;10.20;99.90
17033;DHT22;63208;52.178;21.016;2023-05-10T05:41:19;10.30;99.90
17033;DHT22;63208;52.178;21.016;2023-05-10T05:43:46;10.40;99.90
17033;DHT22;63208;52.178;21.016;2023-05-10T05:46:14;10.50;99.90
17033;DHT22;63208;52.178;21.016;2023-05-10T05:48:41;10.50;99.90
17033;DHT22;63208;52.178;21.016;2023-05-10T05:51:08;10.60;99.90
17033;DHT22;63208;52.178;21.016;2023-05-10T05:53:35;10.70;99.90
17033;DHT22;63208;52.178;21.016;2023-05-10T05:56:02;10.80;99.90
17033;DHT22;63208;52.178;21.016;2023-05-10T05:58:28;10.80;99.90
17033;DHT22;63208;52.178;21.016;2023-05-10T06:00:55;12.20;99.90
17033;DHT22;63208;52.178;21.016;2023-05-10T06:03:24;10.80;99.90
17033;DHT22;63208;52.178;21.016;2023-05-10T06:05:50;11.00;99.90
17033;DHT22;63208;52.178;21.016;2023-05-10T06:08:17;11.20;99.90
17033;DHT22;63208;52.178;21.016;2023-05-10T06:10:44;11.20;99.90
17033;DHT22;63208;52.178;21.016;2023-05-10T06:13:10;11.50;99.90
17033;DHT22;63208;52.178;21.016;2023-05-10T06:15:37;11.40;99.90
17033;DHT22;63208;52.178;21.016;2023-05-10T06:18:04;11.50;99.90
17033;DHT22;63208;52.178;21.016;2023-05-10T06:20:32;11.50;99.90
17033;DHT22;63208;52.178;21.016;2023-05-10T06:22:59;11.50;99.90
17033;DHT22;63208;52.178;21.016;2023-05-10T06:25:26;11.70;99.90
17033;DHT22;63208;52.178;21.016;2023-05-10T06:28:06;11.70;99.90
17033;DHT22;63208;52.178;21.016;2023-05-10T06:30:33;11.80;99.90
17033;DHT22;63208;52.178;21.016;2023-05-10T06:33:02;11.90;99.90
17033;DHT22;63208;52.178;21.016;2023-05-10T06:35:29;12.00;99.90
17033;DHT22;63208;52.178;21.016;2023-05-10T06:37:58;12.10;99.90
17033;DHT22;63208;52.178;21.016;2023-05-10T06:40:24;12.10;99.90
17033;DHT22;63208;52.178;21.016;2023-05-10T06:42:51;12.30;99.90
17033;DHT22;63208;52.178;21.016;2023-05-10T06:45:18;12.30;99.90
17033;DHT22;63208;52.178;21.016;2023-05-10T06:47:44;12.30;99.90
17033;DHT22;63208;52.178;21.016;2023-05-10T06:50:11;12.40;99.70
17033;DHT22;63208;52.178;21.016;2023-05-10T06:52:38;12.50;99.90
17033;DHT22;63208;52.178;21.016;2023-05-10T06:55:06;12.50;99.90
17033;DHT22;63208;52.178;21.016;2023-05-10T06:58:16;12.60;99.90
17033;DHT22;63208;52.178;21.016;2023-05-10T07:00:39;12.60;98.90
17033;DHT22;63208;52.178;21.016;2023-05-10T07:03:12;12.60;99.90
17033;DHT22;63208;52.178;21.016;2023-05-10T07:05:39;12.80;98.90
17033;DHT22;63208;52.178;21.016;2023-05-10T07:08:06;12.80;99.10
17033;DHT22;63208;52.178;21.016;2023-05-10T07:10:35;12.90;99.00
17033;DHT22;63208;52.178;21.016;2023-05-10T07:13:01;12.90;97.70
17033;DHT22;63208;52.178;21.016;2023-05-10T07:15:28;12.90;98.30
17033;DHT22;63208;52.178;21.016;2023-05-10T07:17:55;13.10;98.00
17033;DHT22;63208;52.178;21.016;2023-05-10T07:20:22;13.20;98.00
17033;DHT22;63208;52.178;21.016;2023-05-10T07:22:48;13.30;98.20
17033;DHT22;63208;52.178;21.016;2023-05-10T07:25:15;13.40;95.00
17033;DHT22;63208;52.178;21.016;2023-05-10T07:27:44;13.30;95.80
17033;DHT22;63208;52.178;21.016;2023-05-10T07:30:11;13.50;94.40
17033;DHT22;63208;52.178;21.016;2023-05-10T07:32:38;13.60;95.00
17033;DHT22;63208;52.178;21.016;2023-05-10T07:35:07;13.70;91.40
17033;DHT22;63208;52.178;21.016;2023-05-10T07:37:34;13.80;90.20
17033;DHT22;63208;52.178;21.016;2023-05-10T07:40:01;13.90;90.90
17033;DHT22;63208;52.178;21.016;2023-05-10T07:42:28;13.90;92.90
17033;DHT22;63208;52.178;21.016;2023-05-10T07:44:56;14.00;91.50
17033;DHT22;63208;52.178;21.016;2023-05-10T07:47:23;14.10;88.90
17033;DHT22;63208;52.178;21.016;2023-05-10T07:49:49;14.10;88.20
17033;DHT22;63208;52.178;21.016;2023-05-10T07:52:16;14.20;87.10
17033;DHT22;63208;52.178;21.016;2023-05-10T07:54:43;14.20;85.60
17033;DHT22;63208;52.178;21.016;2023-05-10T07:57:09;14.20;83.60
17033;DHT22;63208;52.178;21.016;2023-05-10T07:59:36;14.20;85.60
17033;DHT22;63208;52.178;21.016;2023-05-10T08:02:04;14.30;85.20
17033;DHT22;63208;52.178;21.016;2023-05-10T08:04:31;14.40;83.30
17033;DHT22;63208;52.178;21.016;2023-05-10T08:06:58;14.40;83.10
17033;DHT22;63208;52.178;21.016;2023-05-10T08:09:24;14.40;80.80
17033;DHT22;63208;52.178;21.016;2023-05-10T08:11:51;14.50;82.20
17033;DHT22;63208;52.178;21.016;2023-05-10T08:14:18;14.50;80.20
17033;DHT22;63208;52.178;21.016;2023-05-10T08:16:45;14.50;82.40
17033;DHT22;63208;52.178;21.016;2023-05-10T08:19:13;14.60;78.70
17033;DHT22;63208;52.178;21.016;2023-05-10T08:21:39;14.80;77.30
17033;DHT22;63208;52.178;21.016;2023-05-10T08:24:07;14.90;76.70
17033;DHT22;63208;52.178;21.016;2023-05-10T08:26:34;14.90;76.90
17033;DHT22;63208;52.178;21.016;2023-05-10T08:29:01;14.90;76.10
17033;DHT22;63208;52.178;21.016;2023-05-10T08:31:27;14.90;75.60
17033;DHT22;63208;52.178;21.016;2023-05-10T08:33:54;14.90;74.70
17033;DHT22;63208;52.178;21.016;2023-05-10T08:36:22;15.00;76.60
17033;DHT22;63208;52.178;21.016;2023-05-10T08:38:50;15.00;73.30
17033;DHT22;63208;52.178;21.016;2023-05-10T08:41:17;15.00;73.40
17033;DHT22;63208;52.178;21.016;2023-05-10T08:43:44;15.00;73.40
17033;DHT22;63208;52.178;21.016;2023-05-10T08:46:12;15.00;72.90
17033;DHT22;63208;52.178;21.016;2023-05-10T08:48:41;15.10;74.60
17033;DHT22;63208;52.178;21.016;2023-05-10T08:51:09;15.10;75.40
17033;DHT22;63208;52.178;21.016;2023-05-10T08:53:39;15.10;74.00
17033;DHT22;63208;52.178;21.016;2023-05-10T08:56:06;15.20;70.90
17033;DHT22;63208;52.178;21.016;2023-05-10T09:01:36;14.10;69.90
17033;DHT22;63208;52.178;21.016;2023-05-10T09:04:03;15.20;69.40
17033;DHT22;63208;52.178;21.016;2023-05-10T09:06:30;15.30;71.40
17033;DHT22;63208;52.178;21.016;2023-05-10T09:08:58;15.40;69.20
17033;DHT22;63208;52.178;21.016;2023-05-10T09:11:25;15.40;70.10
17033;DHT22;63208;52.178;21.016;2023-05-10T09:13:54;15.40;70.60
17033;DHT22;63208;52.178;21.016;2023-05-10T09:16:21;15.50;69.50
17033;DHT22;63208;52.178;21.016;2023-05-10T09:18:48;15.60;70.20
17033;DHT22;63208;52.178;21.016;2023-05-10T09:21:15;15.60;69.90
17033;DHT22;63208;52.178;21.016;2023-05-10T09:23:42;15.60;71.90
17033;DHT22;63208;52.178;21.016;2023-05-10T09:26:10;15.60;71.10
17033;DHT22;63208;52.178;21.016;2023-05-10T09:34:49;14.20;69.70
17033;DHT22;63208;52.178;21.016;2023-05-10T09:37:16;15.00;69.70
17033;DHT22;63208;52.178;21.016;2023-05-10T09:39:43;15.80;70.20
17033;DHT22;63208;52.178;21.016;2023-05-10T09:42:11;15.80;70.90
17033;DHT22;63208;52.178;21.016;2023-05-10T09:44:38;15.80;69.00
17033;DHT22;63208;52.178;21.016;2023-05-10T09:47:06;15.80;69.80
17033;DHT22;63208;52.178;21.016;2023-05-10T09:49:32;16.00;68.80
17033;DHT22;63208;52.178;21.016;2023-05-10T09:52:00;16.00;70.90
17033;DHT22;63208;52.178;21.016;2023-05-10T09:54:27;16.10;69.90
17033;DHT22;63208;52.178;21.016;2023-05-10T09:56:54;16.10;70.70
17033;DHT22;63208;52.178;21.016;2023-05-10T09:59:23;16.10;70.90
17033;DHT22;63208;52.178;21.016;2023-05-10T10:01:51;16.20;69.70
17033;DHT22;63208;52.178;21.016;2023-05-10T10:04:18;16.20;69.90
17033;DHT22;63208;52.178;21.016;2023-05-10T10:06:46;16.30;70.50
17033;DHT22;63208;52.178;21.016;2023-05-10T10:09:13;16.40;69.80
17033;DHT22;63208;52.178;21.016;2023-05-10T10:11:42;16.40;68.90
17033;DHT22;63208;52.178;21.016;2023-05-10T10:14:09;16.50;68.90
17033;DHT22;63208;52.178;21.016;2023-05-10T10:16:39;16.60;67.70
17033;DHT22;63208;52.178;21.016;2023-05-10T10:19:05;16.60;68.30
17033;DHT22;63208;52.178;21.016;2023-05-10T10:24:35;15.50;67.10
17033;DHT22;63208;52.178;21.016;2023-05-10T10:36:19;18.10;67.90
17033;DHT22;63208;52.178;21.016;2023-05-10T10:38:56;16.90;65.80
17033;DHT22;63208;52.178;21.016;2023-05-10T10:41:29;17.00;66.60
17033;DHT22;63208;52.178;21.016;2023-05-10T10:47:00;17.10;65.80
17033;DHT22;63208;52.178;21.016;2023-05-10T10:49:28;17.20;65.40
17033;DHT22;63208;52.178;21.016;2023-05-10T10:52:21;17.20;65.20
17033;DHT22;63208;52.178;21.016;2023-05-10T10:54:51;17.30;64.80
17033;DHT22;63208;52.178;21.016;2023-05-10T10:57:18;17.30;64.80
17033;DHT22;63208;52.178;21.016;2023-05-10T10:59:47;17.40;64.10
17033;DHT22;63208;52.178;21.016;2023-05-10T11:02:32;17.50;66.10
17033;DHT22;63208;52.178;21.016;2023-05-10T11:05:00;17.60;67.30
17033;DHT22;63208;52.178;21.016;2023-05-10T11:07:28;17.60;65.20
17033;DHT22;63208;52.178;21.016;2023-05-10T11:09:55;17.60;64.80
17033;DHT22;63208;52.178;21.016;2023-05-10T11:12:24;17.70;64.40
17033;DHT22;63208;52.178;21.016;2023-05-10T11:14:51;17.80;64.30
17033;DHT22;63208;52.178;21.016;2023-05-10T11:17:23;17.90;65.70
17033;DHT22;63208;52.178;21.016;2023-05-10T11:20:06;18.00;63.80
17033;DHT22;63208;52.178;21.016;2023-05-10T11:22:46;18.00;65.20
17033;DHT22;63208;52.178;21.016;2023-05-10T11:25:15;18.10;63.50
17033;DHT22;63208;52.178;21.016;2023-05-10T11:27:42;18.20;63.80
17033;DHT22;63208;52.178;21.016;2023-05-10T11:30:11;18.30;63.40
17033;DHT22;63208;52.178;21.016;2023-05-10T11:32:38;18.30;66.10
17033;DHT22;63208;52.178;21.016;2023-05-10T11:35:08;18.40;63.80
17033;DHT22;63208;52.178;21.016;2023-05-10T11:37:35;18.50;65.70
17033;DHT22;63208;52.178;21.016;2023-05-10T11:40:04;18.50;64.00
17033;DHT22;63208;52.178;21.016;2023-05-10T11:42:31;18.60;62.20
17033;DHT22;63208;52.178;21.016;2023-05-10T11:45:00;18.80;64.50
17033;DHT22;63208;52.178;21.016;2023-05-10T11:47:26;18.80;64.60
17033;DHT22;63208;52.178;21.016;2023-05-10T11:49:53;18.90;63.40
17033;DHT22;63208;52.178;21.016;2023-05-10T11:52:20;19.00;60.70
17033;DHT22;63208;52.178;21.016;2023-05-10T11:54:50;19.00;63.00
17033;DHT22;63208;52.178;21.016;2023-05-10T11:57:21;19.10;60.70
17033;DHT22;63208;52.178;21.016;2023-05-10T11:59:52;19.20;63.40
17033;DHT22;63208;52.178;21.016;2023-05-10T12:02:19;19.20;61.30
17033;DHT22;63208;52.178;21.016;2023-05-10T12:04:46;19.20;60.90
17033;DHT22;63208;52.178;21.016;2023-05-10T12:07:13;19.40;64.70
17033;DHT22;63208;52.178;21.016;2023-05-10T12:15:47;20.20;60.80
17033;DHT22;63208;52.178;21.016;2023-05-10T12:18:14;19.70;58.80
17033;DHT22;63208;52.178;21.016;2023-05-10T12:20:41;19.60;58.90
17033;DHT22;63208;52.178;21.016;2023-05-10T12:23:08;19.50;59.20
17033;DHT22;63208;52.178;21.016;2023-05-10T12:25:36;19.80;60.30
17033;DHT22;63208;52.178;21.016;2023-05-10T12:28:03;19.80;59.80
17033;DHT22;63208;52.178;21.016;2023-05-10T12:30:31;20.10;57.80
17033;DHT22;63208;52.178;21.016;2023-05-10T12:33:07;20.40;58.40
17033;DHT22;63208;52.178;21.016;2023-05-10T12:35:43;20.20;56.80
17033;DHT22;63208;52.178;21.016;2023-05-10T12:38:22;20.20;56.10
17033;DHT22;63208;52.178;21.016;2023-05-10T12:40:50;20.10;55.70
17033;DHT22;63208;52.178;21.016;2023-05-10T12:43:17;20.30;56.20
17033;DHT22;63208;52.178;21.016;2023-05-10T12:45:43;20.60;56.20
17033;DHT22;63208;52.178;21.016;2023-05-10T12:48:14;20.70;56.80
17033;DHT22;63208;52.178;21.016;2023-05-10T12:50:41;20.90;55.40
17033;DHT22;63208;52.178;21.016;2023-05-10T12:53:08;21.30;56.30
17033;DHT22;63208;52.178;21.016;2023-05-10T12:55:46;21.50;55.30
17033;DHT22;63208;52.178;21.016;2023-05-10T12:58:20;21.70;54.80
17033;DHT22;63208;52.178;21.016;2023-05-10T13:00:47;21.70;53.20
17033;DHT22;63208;52.178;21.016;2023-05-10T13:03:15;22.00;54.20
17033;DHT22;63208;52.178;21.016;2023-05-10T13:05:42;22.50;54.00
17033;DHT22;63208;52.178;21.016;2023-05-10T13:08:09;23.00;53.80
17033;DHT22;63208;52.178;21.016;2023-05-10T13:10:35;23.50;52.30
17033;DHT22;63208;52.178;21.016;2023-05-10T13:13:02;23.80;52.40
17033;DHT22;63208;52.178;21.016;2023-05-10T13:15:29;23.50;51.00
17033;DHT22;63208;52.178;21.016;2023-05-10T13:17:55;23.40;50.10
17033;DHT22;63208;52.178;21.016;2023-05-10T13:20:24;23.60;51.00
17033;DHT22;63208;52.178;21.016;2023-05-10T13:22:53;24.60;49.50
17033;DHT22;63208;52.178;21.016;2023-05-10T13:25:20;24.80;48.50
17033;DHT22;63208;52.178;21.016;2023-05-10T13:27:49;25.50;49.30
17033;DHT22;63208;52.178;21.016;2023-05-10T13:30:15;26.20;47.70
17033;DHT22;63208;52.178;21.016;2023-05-10T13:32:42;25.90;45.70
17033;DHT22;63208;52.178;21.016;2023-05-10T13:35:09;27.70;44.90
17033;DHT22;63208;52.178;21.016;2023-05-10T13:37:37;27.70;43.70
17033;DHT22;63208;52.178;21.016;2023-05-10T13:40:04;27.60;42.70
17033;DHT22;63208;52.178;21.016;2023-05-10T13:42:31;28.20;42.50
17033;DHT22;63208;52.178;21.016;2023-05-10T13:50:33;30.90;41.20
17033;DHT22;63208;52.178;21.016;2023-05-10T13:53:01;29.70;39.80
17033;DHT22;63208;52.178;21.016;2023-05-10T13:55:28;30.10;40.00
17033;DHT22;63208;52.178;21.016;2023-05-10T13:57:55;30.60;39.10
17033;DHT22;63208;52.178;21.016;2023-05-10T14:00:23;30.70;38.70
17033;DHT22;63208;52.178;21.016;2023-05-10T14:02:49;30.80;38.30
17033;DHT22;63208;52.178;21.016;2023-05-10T14:05:16;31.00;38.60
17033;DHT22;63208;52.178;21.016;2023-05-10T14:07:43;30.70;37.60
17033;DHT22;63208;52.178;21.016;2023-05-10T14:10:11;30.80;37.30
17033;DHT22;63208;52.178;21.016;2023-05-10T14:12:38;30.50;37.20
17033;DHT22;63208;52.178;21.016;2023-05-10T14:15:05;30.60;38.90
17033;DHT22;63208;52.178;21.016;2023-05-10T14:17:32;29.90;36.70
17033;DHT22;63208;52.178;21.016;2023-05-10T14:23:02;29.50;38.10
17033;DHT22;63208;52.178;21.016;2023-05-10T14:25:30;28.20;38.70
17033;DHT22;63208;52.178;21.016;2023-05-10T14:27:56;27.40;38.60
17033;DHT22;63208;52.178;21.016;2023-05-10T14:30:23;26.70;38.50
17033;DHT22;63208;52.178;21.016;2023-05-10T14:32:50;26.60;40.30
17033;DHT22;63208;52.178;21.016;2023-05-10T14:35:19;26.80;39.80
17033;DHT22;63208;52.178;21.016;2023-05-10T14:37:46;27.00;40.00
17033;DHT22;63208;52.178;21.016;2023-05-10T14:40:13;26.60;40.40
17033;DHT22;63208;52.178;21.016;2023-05-10T14:42:41;25.60;40.10
17033;DHT22;63208;52.178;21.016;2023-05-10T14:45:17;24.50;42.10
17033;DHT22;63208;52.178;21.016;2023-05-10T14:47:46;23.70;42.90
17033;DHT22;63208;52.178;21.016;2023-05-10T14:50:13;22.70;43.70
17033;DHT22;63208;52.178;21.016;2023-05-10T14:52:40;22.20;44.40
17033;DHT22;63208;52.178;21.016;2023-05-10T14:55:07;21.60;44.70
17033;DHT22;63208;52.178;21.016;2023-05-10T14:57:34;21.20;46.50
17033;DHT22;63208;52.178;21.016;2023-05-10T15:02:53;20.70;47.90
17033;DHT22;63208;52.178;21.016;2023-05-10T15:05:20;20.30;47.80
17033;DHT22;63208;52.178;21.016;2023-05-10T15:07:47;20.40;48.30
17033;DHT22;63208;52.178;21.016;2023-05-10T15:10:14;20.10;49.70
17033;DHT22;63208;52.178;21.016;2023-05-10T15:12:50;19.80;49.00
17033;DHT22;63208;52.178;21.016;2023-05-10T15:15:19;20.30;49.20
17033;DHT22;63208;52.178;21.016;2023-05-10T15:17:47;19.40;49.80
17033;DHT22;63208;52.178;21.016;2023-05-10T15:20:15;19.60;51.10
17033;DHT22;63208;52.178;21.016;2023-05-10T15:22:42;19.50;50.60
17033;DHT22;63208;52.178;21.016;2023-05-10T15:25:08;19.60;50.60
17033;DHT22;63208;52.178;21.016;2023-05-10T15:27:42;19.50;51.80
17033;DHT22;63208;52.178;21.016;2023-05-10T15:30:15;19.60;50.90
17033;DHT22;63208;52.178;21.016;2023-05-10T15:38:30;19.50;51.00
17033;DHT22;63208;52.178;21.016;2023-05-10T15:40:57;19.70;50.70
17033;DHT22;63208;52.178;21.016;2023-05-10T15:43:24;19.80;49.90
17033;DHT22;63208;52.178;21.016;2023-05-10T15:45:50;19.90;49.50
17033;DHT22;63208;52.178;21.016;2023-05-10T15:48:17;19.80;49.50
17033;DHT22;63208;52.178;21.016;2023-05-10T15:50:44;19.70;49.00
17033;DHT22;63208;52.178;21.016;2023-05-10T15:53:10;19.60;49.60
17033;DHT22;63208;52.178;21.016;2023-05-10T15:55:38;19.40;49.20
17033;DHT22;63208;52.178;21.016;2023-05-10T15:58:05;19.30;49.70
17033;DHT22;63208;52.178;21.016;2023-05-10T16:00:50;19.30;49.10
17033;DHT22;63208;52.178;21.016;2023-05-10T16:06:20;20.80;49.30
17033;DHT22;63208;52.178;21.016;2023-05-10T16:08:46;19.40;48.50
17033;DHT22;63208;52.178;21.016;2023-05-10T16:11:15;19.30;49.40
17033;DHT22;63208;52.178;21.016;2023-05-10T16:13:41;19.10;48.60
17033;DHT22;63208;52.178;21.016;2023-05-10T16:16:08;18.90;48.50
17033;DHT22;63208;52.178;21.016;2023-05-10T16:18:35;18.90;48.90
17033;DHT22;63208;52.178;21.016;2023-05-10T16:21:02;18.70;49.60